Flight Track Log - Related Links

Times and Time Zones

All times are in EDT time to prevent confusion due to time zone crossing. See the N729JB flight status page for this flight to view local times or setup timezone preferences in your user account.

Time Position Orientation Groundspeed Altitude Reporting Facility
EDT Latitude Longitude Course Direction KTS MPH feet Rate Location/Type
Mon 04:25:28 PM 40.6310 -73.7790 123° Southeast 158 182 700  Level FlightAware ADS-B
Mon 04:25:43 PM 40.6240 -73.7710 139° Southeast 165 190 1,100 1,350 Climbing FlightAware ADS-B
Mon 04:26:08 PM 40.6050 -73.7590 154° Southeast 195 224 1,600 982 Climbing FlightAware ADS-B
Mon 04:26:38 PM 40.5760 -73.7420 156° South 247 284 2,000 1,333 Climbing FlightAware ADS-B
Mon 04:26:53 PM 40.5620 -73.7290 145° Southeast 263 303 2,600 2,850 Climbing FlightAware ADS-B
Mon 04:27:18 PM 40.5430 -73.6940 126° Southeast 275 316 3,900 3,055 Climbing FlightAware ADS-B
Mon 04:27:48 PM 40.5220 -73.6510 123° Southeast 288 331 5,400 3,055 Climbing FlightAware ADS-B
Mon 04:28:13 PM 40.5050 -73.6150 122° Southeast 290 334 6,700 2,727 Climbing FlightAware ADS-B
Mon 04:28:43 PM 40.4820 -73.5660 122° Southeast 309 356 7,900 2,600 Climbing FlightAware ADS-B
Mon 04:29:13 PM 40.4610 -73.5210 122° Southeast 314 361 9,300 2,557 Climbing FlightAware ADS-B
Mon 04:29:44 PM 40.4340 -73.4645 122° Southeast 336 387 10,500 1,667 Climbing FlightAware ADS-B
Mon 04:30:25 PM 40.3978 -73.3893 122° Southeast 355 409 11,300 1,520 Climbing FlightAware ADS-B
Mon 04:30:59 PM 40.3617 -73.3276 128° Southeast 386 444 12,400 2,164 Climbing FlightAware ADS-B
Mon 04:31:26 PM 40.3182 -73.3029 157° South 381 438 13,500 2,237 Climbing FlightAware ADS-B
Mon 04:31:58 PM 40.2670 -73.2830 163° South 382 440 14,600 2,170 Climbing FlightAware ADS-B
Mon 04:32:13 PM 40.2389 -73.2722 164° South 385 443 15,200 1,733 Climbing FlightAware ADS-B
Mon 04:32:43 PM 40.1900 -73.2530 163° South 394 453 15,900 1,588 Climbing FlightAware ADS-B
Mon 04:32:47 PM 40.1783 -73.2484 163° South 393 452 16,100 2,211 Climbing FlightAware ADS-B
Mon 04:33:21 PM 40.1189 -73.2250 163° South 398 458 17,300 2,031 Climbing FlightAware ADS-B
Mon 04:33:52 PM 40.0640 -73.2036 163° South 403 464 18,300 1,792 Climbing FlightAware ADS-B
Mon 04:34:38 PM 39.9816 -73.1716 163° South 411 473 19,600 1,462 Climbing FlightAware ADS-B
Mon 04:35:10 PM 39.9225 -73.1488 164° South 422 486 20,200 1,286 Climbing FlightAware ADS-B
Mon 04:35:48 PM 39.8508 -73.1209 163° South 429 494 21,100 1,324 Climbing FlightAware ADS-B
Mon 04:36:18 PM 39.7922 -73.0982 163° South 439 505 21,700 1,342 Climbing FlightAware ADS-B
Mon 04:37:04 PM 39.7024 -73.0637 164° South 442 509 22,800 1,366 Climbing FlightAware ADS-B
Mon 04:37:59 PM 39.5934 -73.0218 163° South 443 510 24,000 1,333 Climbing FlightAware ADS-B
Mon 04:38:43 PM 39.5100 -72.9900 164° South 450 518 25,000 1,244 Climbing FlightAware ADS-B
Mon 04:39:21 PM 39.4295 -72.9590 163° South 451 519 25,700 988 Climbing FlightAware ADS-B
Mon 04:40:08 PM 39.3324 -72.9221 164° South 461 531 26,400 1,000 Climbing FlightAware ADS-B
Mon 04:40:39 PM 39.2695 -72.8981 164° South 463 533 27,000 1,161 Climbing FlightAware ADS-B
Mon 04:41:10 PM 39.2052 -72.8737 164° South 464 534 27,600 957 Climbing FlightAware ADS-B
Mon 04:41:48 PM 39.1269 -72.8440 164° South 469 540 28,100 947 Climbing FlightAware ADS-B
Mon 04:42:26 PM 39.0467 -72.8137 164° South 472 543 28,800 943 Climbing FlightAware ADS-B
Mon 04:42:58 PM 38.9970 -72.7950 164° South 471 542 29,200 1,227 Climbing FlightAware ADS-B
Mon 04:43:10 PM 38.9544 -72.7788 164° South 471 542 29,700 1,412 Climbing FlightAware ADS-B
Mon 04:44:23 PM 38.8150 -72.7260 164° South 455 524 31,200 1,111 Climbing FlightAware ADS-B
Mon 04:44:58 PM 38.7332 -72.6958 164° South 467 537 31,700 1,071 Climbing FlightAware ADS-B
Mon 04:45:47 PM 38.6316 -72.6579 164° South 463 533 32,700 1,037 Climbing FlightAware ADS-B
Mon 04:46:19 PM 38.5666 -72.6338 164° South 463 533 33,100 806 Climbing FlightAware ADS-B
Mon 04:46:54 PM 38.4927 -72.6064 164° South 464 534 33,600 811 Climbing FlightAware ADS-B
Mon 04:47:33 PM 38.4128 -72.5766 164° South 464 534 34,100 750 Climbing FlightAware ADS-B
Mon 04:48:06 PM 38.3452 -72.5516 164° South 465 535 34,500 600 Climbing FlightAware ADS-B
Mon 04:48:43 PM 38.2830 -72.5290 164° South 467 537 34,800 385 Climbing FlightAware ADS-B
Mon 04:49:24 PM 38.1845 -72.4925 164° South 465 535 35,000 150 Climbing FlightAware ADS-B
Mon 04:50:03 PM 38.1036 -72.4627 164° South 462 532 35,000  Level FlightAware ADS-B
Mon 04:50:42 PM 38.0207 -72.4322 164° South 468 539 35,000  Level FlightAware ADS-B
Mon 04:51:28 PM 37.9255 -72.3986 164° South 464 534 35,000 -64 Level FlightAware ADS-B
Mon 04:52:16 PM 37.8322 -72.3894 164° South 462 532 34,900 -55 Descending New York Center
Mon 04:53:17 PM 37.7092 -72.3867 179° South 457 526 34,900 50 Level New York Center
Mon 04:54:17 PM 37.5944 -72.3894 181° South 443 510 35,000 50 Climbing New York Center
Mon 04:55:18 PM 37.4672 -72.3892 180° South 438 504 35,000  Level New York Center
Mon 04:56:18 PM 37.3378 -72.3889 180° South 447 514 35,000 -51 Level New York Center
Mon 04:57:16 PM 37.2189 -72.3917 181° South 447 514 34,900  Descending New York Center
Mon 04:58:16 PM 37.1000 -72.3942 181° South 454 522 35,000 50 Climbing New York Center
Mon 04:59:16 PM 36.9747 -72.3939 180° South 454 522 35,000  Level New York Center
Mon 05:00:17 PM 36.8497 -72.3964 181° South 460 529 35,000  Level New York Center
Mon 05:01:18 PM 36.7203 -72.3989 181° South 460 529 35,000 198 Level New York Center
Mon 05:02:18 PM 36.5992 -72.3986 180° South 460 529 35,400 661 Climbing New York Center
Mon 05:03:16 PM 36.4719 -72.3986 180° South 455 524 36,300 706 Climbing New York Center
Mon 05:04:17 PM 36.3508 -72.3986 180° South 455 524 36,800 344 Climbing New York Center
Mon 05:05:18 PM 36.2258 -72.4008 181° South 455 524 37,000 101 Climbing New York Center
Mon 05:06:16 PM 36.1028 -72.4008 180° South 450 518 37,000  Level New York Center
Mon 05:07:17 PM 35.9775 -72.4033 181° South 450 518 37,000 -50 Level New York Center
Mon 05:08:17 PM 35.8544 -72.4031 180° South 450 518 36,900 -50 Descending New York Center
Mon 05:09:18 PM 35.7292 -72.4031 180° South 450 518 36,900 50 Level New York Center
Mon 05:10:16 PM 35.6039 -72.4081 182° South 450 518 37,000 51 Climbing New York Center
Mon 05:11:16 PM 35.4808 -72.4053 179° South 450 518 37,000  Level New York Center
Mon 05:12:16 PM 35.3600 -72.4053 180° South 444 511 37,000  Level New York Center
Mon 05:13:17 PM 35.2325 -72.4078 181° South 444 511 37,000  Level New York Center
Mon 05:14:18 PM 35.1075 -72.4100 181° South 444 511 37,000  Level New York Center
Mon 05:15:18 PM 34.9822 -72.4075 179° South 444 511 37,000  Level New York Center
Mon 05:16:00 PM 35.0500 -72.4167 175° South 424 488 37,000  Level New York Oceanic (ODAPS)
Mon 05:16:16 PM 34.8572 -72.4022 175° South 444 511 37,000  Level New York Center
Mon 05:17:16 PM 34.7339 -72.4097 183° South 444 511 37,000  Level New York Center
Mon 05:19:00 PM 34.5262 -72.3496 176° South  Level FlightAware Approximate
Mon 05:26:00 PM 33.6812 -72.2192 167° South  Level FlightAware Approximate
Mon 05:27:00 PM 33.5623 -72.1858 167° South  Level FlightAware Approximate
Mon 05:28:00 PM 33.4435 -72.1524 167° South  Level FlightAware Approximate
Mon 05:29:00 PM 33.3247 -72.1191 167° South  Level FlightAware Approximate
Mon 05:30:00 PM 33.2058 -72.0860 167° South  Level FlightAware Approximate
Mon 05:31:00 PM 33.0870 -72.0529 167° South  Level FlightAware Approximate
Mon 05:32:00 PM 32.9681 -72.0199 167° South  Level FlightAware Approximate
Mon 05:33:00 PM 32.8492 -71.9870 167° South  Level FlightAware Approximate
Mon 05:34:00 PM 32.7303 -71.9542 167° South  Level FlightAware Approximate
Mon 05:35:00 PM 32.6114 -71.9214 167° South  Level FlightAware Approximate
Mon 05:36:00 PM 32.4925 -71.8891 167° South  Level FlightAware Approximate
Mon 05:37:00 PM 32.3735 -71.8572 167° South  Level FlightAware Approximate
Mon 05:37:03 PM 33.9833 -72.3000 167° South 456 525 37,000  Level New York Oceanic (ODAPS)
Mon 05:38:00 PM 32.2544 -71.8254 167° South  Level FlightAware Approximate
Mon 05:39:00 PM 32.1353 -71.7937 167° South  Level FlightAware Approximate
Mon 05:40:00 PM 32.0162 -71.7624 168° South  Level FlightAware Approximate
Mon 05:41:00 PM 31.8969 -71.7325 168° South  Level FlightAware Approximate
Mon 05:42:00 PM 31.7775 -71.7026 168° South  Level FlightAware Approximate
Mon 05:43:00 PM 31.5053 -71.6398 168° South 456 525 37,000  Level FlightAware Transoceanic
Mon 05:44:00 PM 31.3813 -71.6078 168° South 456 525 37,000  Level FlightAware Transoceanic
Mon 05:45:00 PM 31.2574 -71.5758 168° South 456 525 37,000  Level FlightAware Transoceanic
Mon 05:46:00 PM 31.1334 -71.5439 168° South 456 525 37,000  Level FlightAware Transoceanic
Mon 05:47:00 PM 31.0093 -71.5121 168° South 456 525 37,000  Level FlightAware Transoceanic
Mon 05:48:00 PM 30.8853 -71.4803 168° South 456 525 37,000  Level FlightAware Transoceanic
Mon 05:49:00 PM 30.7613 -71.4487 168° South 456 525 37,000  Level FlightAware Transoceanic
Mon 05:50:00 PM 30.6373 -71.4171 168° South 456 525 37,000  Level FlightAware Transoceanic
Mon 05:51:00 PM 30.5132 -71.3856 168° South 456 525 37,000  Level FlightAware Transoceanic
Mon 05:52:00 PM 30.3892 -71.3542 168° South 456 525 37,000  Level FlightAware Transoceanic
Mon 05:53:00 PM 30.2651 -71.3229 168° South 456 525 37,000  Level FlightAware Transoceanic
Mon 05:54:00 PM 30.1411 -71.2916 168° South 456 525 37,000  Level FlightAware Transoceanic
Mon 05:55:00 PM 30.0170 -71.2605 168° South 456 525 37,000  Level FlightAware Transoceanic
Mon 05:56:00 PM 29.8929 -71.2294 168° South 456 525 37,000  Level FlightAware Transoceanic
Mon 05:57:00 PM 29.7688 -71.1983 168° South 456 525 37,000  Level FlightAware Transoceanic
Mon 05:58:00 PM 29.6447 -71.1674 168° South 456 525 37,000  Level FlightAware Transoceanic
Mon 05:59:00 PM 29.5206 -71.1365 168° South 456 525 37,000  Level FlightAware Transoceanic
Mon 06:00:00 PM 29.3965 -71.1058 168° South 456 525 37,000  Level FlightAware Transoceanic
Mon 06:01:00 PM 29.2724 -71.0750 168° South 456 525 37,000  Level FlightAware Transoceanic
Mon 06:02:00 PM 29.1483 -71.0444 168° South 456 525 37,000  Level FlightAware Transoceanic
Mon 06:03:00 PM 29.0241 -71.0138 168° South 456 525 37,000  Level FlightAware Transoceanic
Mon 06:04:00 PM 28.9000 -70.9833 168° South 456 525 37,000  Level FlightAware Transoceanic
Mon 06:05:00 PM 28.7701 -70.9511 168° South 456 525 37,000  Level FlightAware Transoceanic
Mon 06:05:40 PM 28.9000 -70.9833 168° South 461 531 37,000  Level New York Oceanic (ODAPS)
Mon 06:06:00 PM 28.6402 -70.9190 168° South 456 525 37,000  Level FlightAware Transoceanic
Mon 06:07:00 PM 28.5103 -70.8870 168° South 456 525 37,000  Level FlightAware Transoceanic
Mon 06:08:00 PM 28.3804 -70.8550 168° South 456 525 37,000  Level FlightAware Transoceanic
Mon 06:09:00 PM 28.2504 -70.8232 168° South 456 525 37,000  Level FlightAware Transoceanic
Mon 06:10:00 PM 28.1205 -70.7914 168° South 456 525 37,000  Level FlightAware Transoceanic
Mon 06:11:00 PM 27.8941 -70.7362 168° South 461 531 37,000  Level FlightAware Transoceanic
Mon 06:12:00 PM 27.7684 -70.7056 168° South 461 531 37,000  Level FlightAware Transoceanic
Mon 06:13:00 PM 27.6426 -70.6751 168° South 461 531 37,000  Level FlightAware Transoceanic
Mon 06:14:00 PM 27.5168 -70.6447 168° South 461 531 37,000  Level FlightAware Transoceanic
Mon 06:15:00 PM 27.3911 -70.6143 168° South 461 531 37,000  Level FlightAware Transoceanic
Mon 06:16:00 PM 27.2653 -70.5840 168° South 461 531 37,000  Level FlightAware Transoceanic
Mon 06:17:00 PM 27.1395 -70.5538 168° South 461 531 37,000  Level FlightAware Transoceanic
Mon 06:18:00 PM 27.0137 -70.5236 168° South 461 531 37,000  Level FlightAware Transoceanic
Mon 06:19:00 PM 26.8879 -70.4936 168° South 461 531 37,000  Level FlightAware Transoceanic
Mon 06:20:00 PM 26.7621 -70.4635 168° South 461 531 37,000  Level FlightAware Transoceanic
Mon 06:21:00 PM 26.6362 -70.4336 168° South 461 531 37,000  Level FlightAware Transoceanic
Mon 06:22:00 PM 26.5104 -70.4037 168° South 461 531 37,000  Level FlightAware Transoceanic
Mon 06:23:00 PM 26.3846 -70.3739 168° South 461 531 37,000  Level FlightAware Transoceanic
Mon 06:24:00 PM 26.2587 -70.3441 168° South 461 531 37,000  Level FlightAware Transoceanic
Mon 06:25:00 PM 26.1329 -70.3144 168° South 461 531 37,000  Level FlightAware Transoceanic
Mon 06:26:00 PM 26.0070 -70.2848 168° South 461 531 37,000  Level FlightAware Transoceanic
Mon 06:27:00 PM 25.8812 -70.2552 168° South 461 531 37,000  Level FlightAware Transoceanic
Mon 06:28:00 PM 25.7553 -70.2257 168° South 461 531 37,000  Level FlightAware Transoceanic
Mon 06:29:00 PM 25.6294 -70.1963 168° South 461 531 37,000  Level FlightAware Transoceanic
Mon 06:30:00 PM 25.5036 -70.1669 168° South 461 531 37,000  Level FlightAware Transoceanic
Mon 06:30:44 PM 25.4033 -70.1786 176° South 448 516 37,000  Level Miami Center
Mon 06:31:00 PM 25.3777 -70.1376 168° South 461 531 37,000  Level FlightAware Transoceanic
Mon 06:31:44 PM 25.2703 -70.1469 168° South 461 531 37,000  Level Miami Center
Mon 06:32:00 PM 25.2518 -70.1083 168° South 461 531 37,000  Level FlightAware Transoceanic
Mon 06:32:44 PM 25.1397 -70.1175 168° South 472 543 37,000  Level Miami Center
Mon 06:33:00 PM 25.1259 -70.0791 168° South 461 531 37,000  Level FlightAware Transoceanic
Mon 06:33:44 PM 25.0111 -70.0903 169° South 472 543 37,000  Level Miami Center
Mon 06:34:00 PM 25.0000 -70.0500 176° South 461 531 37,000  Level FlightAware Transoceanic
Mon 06:34:44 PM 24.8808 -70.0722 173° South 472 543 37,000  Level Miami Center
Mon 06:35:00 PM 24.8703 -70.0408 176° South 461 531 37,000  Level FlightAware Transoceanic
Mon 06:35:44 PM 24.7492 -70.0658 177° South 472 543 37,000  Level Miami Center
Mon 06:36:00 PM 24.7405 -70.0317 176° South 461 531 37,000  Level FlightAware Transoceanic
Mon 06:36:44 PM 24.6214 -70.0569 176° South 467 537 37,000  Level Miami Center
Mon 06:37:44 PM 24.4872 -70.0414 174° South 473 544 37,000  Level Miami Center
Mon 06:38:44 PM 24.3594 -70.0325 176° South 479 551 37,000  Level Miami Center
Mon 06:39:44 PM 24.2319 -70.0258 177° South 473 544 37,000  Level Miami Center
Mon 06:40:44 PM 24.1042 -70.0147 175° South 466 536 37,000  Level Miami Center
Mon 06:41:44 PM 23.9742 -70.0036 176° South 466 536 37,000  Level Miami Center
Mon 06:42:44 PM 23.8444 -69.9947 176° South 466 536 37,000  Level Miami Center
Mon 06:43:44 PM 23.7103 -69.9817 175° South 466 536 37,000 50 Level Miami Center
Mon 06:44:44 PM 23.5828 -69.9728 176° South 466 536 37,100  Climbing Miami Center
Mon 06:45:44 PM 23.4508 -69.9642 177° South 466 536 37,000 -50 Descending Miami Center
Mon 06:46:44 PM 23.3253 -69.9528 175° South 466 536 37,000  Level Miami Center
Mon 06:47:44 PM 23.1953 -69.9417 176° South 466 536 37,000  Level Miami Center
Mon 06:48:44 PM 23.0656 -69.9308 176° South 467 537 37,000  Level Miami Center
Mon 06:49:44 PM 22.9381 -69.9219 176° South 467 537 37,000  Level Miami Center
Mon 06:50:44 PM 22.8125 -69.9150 177° South 462 532 37,000  Level Miami Center
Mon 06:51:44 PM 22.6803 -69.8975 173° South 470 541 37,000  Level Miami Center
Mon 06:52:44 PM 22.5550 -69.8928 178° South 465 535 37,000  Level Miami Center
Mon 06:53:44 PM 22.4272 -69.8817 175° South 465 535 37,000 -200 Level Miami Center
Mon 06:54:44 PM 22.2975 -69.8731 176° South 465 535 36,600 -650 Descending Miami Center
Mon 06:55:44 PM 22.1656 -69.8597 175° South 465 535 35,700 -800 Descending Miami Center
Mon 06:56:44 PM 22.0381 -69.8508 176° South 465 535 35,000 -350 Descending Miami Center
Mon 06:57:44 PM 21.9000 -69.8403 176° South 472 543 35,000  Level Miami Center
Mon 06:58:44 PM 21.7681 -69.8294 176° South 483 556 35,000  Level Miami Center
Mon 06:59:44 PM 21.6633 -69.8217 176° South 483 556 35,000  Level Miami Center
Mon 07:00:44 PM 21.5150 -69.8117 176° South 483 556 35,000  Level Miami Center
Mon 07:01:44 PM 21.3853 -69.8006 175° South 483 556 35,000  Level Miami Center
Mon 07:02:44 PM 21.2494 -69.7922 177° South 483 556 35,000  Level Miami Center
Mon 07:03:44 PM 21.1178 -69.7833 176° South 478 550 35,000  Level Miami Center
Mon 07:04:44 PM 20.9861 -69.7747 177° South 478 550 35,000  Level Miami Center
Mon 07:05:44 PM 20.8522 -69.7639 176° South 483 556 35,000  Level Miami Center
Mon 07:06:44 PM 20.7206 -69.7531 176° South 483 556 35,000  Level Miami Center
Mon 07:07:44 PM 20.5889 -69.7444 176° South 483 556 35,000  Level Miami Center
Mon 07:08:44 PM 20.4594 -69.7356 176° South 483 556 35,000  Level Miami Center
Mon 07:09:44 PM 20.3278 -69.7269 176° South 483 556 35,000 -900 Level Miami Center
Mon 07:10:44 PM 20.1961 -69.7161 176° South 483 556 33,200 -2,500 Descending Miami Center
Mon 07:11:44 PM 20.0622 -69.7075 177° South 478 550 30,000 -2,100 Descending Miami Center
Mon 07:12:44 PM 19.9308 -69.7011 177° South 483 556 29,000 -1,000 Descending Miami Center
Mon 07:14:00 PM 19.7755 -69.7004 180° South  Level FlightAware Approximate
Mon 07:21:00 PM 18.9185 -69.6833 180° South  Level FlightAware Approximate
Mon 07:22:00 PM 18.7961 -69.6792 174° South  Level FlightAware Approximate
Mon 07:23:00 PM 18.6741 -69.6667 180° South  Level FlightAware Approximate
Mon 07:24:00 PM 18.5515 -69.6667 180° South  Level FlightAware Approximate
Mon 07:25:00 PM 18.4301 -69.6527 169° South  Level FlightAware Approximate
Mon 07:26:00 PM 18.4167 -69.6500 169° South  Level FlightAware Approximate
Mon 07:27:00 PM 18.4297 -69.6689 169° South  Level Estimated
Mon 07:28:00 PM 18.4297 -69.6689 169° South  Level Estimated
Mon 07:29:00 PM 18.4297 -69.6689 169° South  Level Estimated
Mon 07:30:00 PM 18.4297 -69.6689 169° South  Level Estimated
Mon 07:31:00 PM 18.4297 -69.6689 169° South  Level Estimated
Mon 07:32:00 PM 18.4297 -69.6689 169° South  Level Estimated
Mon 07:33:00 PM 18.4297 -69.6689 169° South  Level Estimated
Mon 07:34:00 PM 18.4297 -69.6689 169° South  Level Estimated
Mon 07:35:00 PM 18.4297 -69.6689 169° South  Level Estimated
Mon 07:36:00 PM 18.4297 -69.6689 169° South  Level Estimated
Mon 07:37:00 PM 18.4297 -69.6689 169° South  Level Estimated
Mon 07:38:00 PM 18.4297 -69.6689 169° South  Level Estimated
Mon 07:39:00 PM 18.4297 -69.6689 169° South  Level Estimated

Login

Don't have an account? Register now (free) for customized features, flight alerts, and more!